sensor_id;sensor_type;location;lat;lon;timestamp;P1;durP1;ratioP1;P2;durP2;ratioP2
8568;SDS011;4322;51.104;-4.162;2023-04-23T00:00:44;2.90;;;2.80;;
8568;SDS011;4322;51.104;-4.162;2023-04-23T00:03:13;3.50;;;3.40;;
8568;SDS011;4322;51.104;-4.162;2023-04-23T00:05:41;3.60;;;3.50;;
8568;SDS011;4322;51.104;-4.162;2023-04-23T00:08:10;3.50;;;3.40;;
8568;SDS011;4322;51.104;-4.162;2023-04-23T00:10:38;3.53;;;3.43;;
8568;SDS011;4322;51.104;-4.162;2023-04-23T00:13:06;3.10;;;3.00;;
8568;SDS011;4322;51.104;-4.162;2023-04-23T00:15:35;4.20;;;4.00;;
8568;SDS011;4322;51.104;-4.162;2023-04-23T00:18:04;3.83;;;3.73;;
8568;SDS011;4322;51.104;-4.162;2023-04-23T00:20:33;3.83;;;3.73;;
8568;SDS011;4322;51.104;-4.162;2023-04-23T00:23:02;3.27;;;3.17;;
8568;SDS011;4322;51.104;-4.162;2023-04-23T00:25:29;3.00;;;2.90;;
8568;SDS011;4322;51.104;-4.162;2023-04-23T00:27:57;3.30;;;3.20;;
8568;SDS011;4322;51.104;-4.162;2023-04-23T00:30:25;3.83;;;3.73;;
8568;SDS011;4322;51.104;-4.162;2023-04-23T00:32:52;3.00;;;2.90;;
8568;SDS011;4322;51.104;-4.162;2023-04-23T00:35:22;2.67;;;2.57;;
8568;SDS011;4322;51.104;-4.162;2023-04-23T00:37:49;2.70;;;2.60;;
8568;SDS011;4322;51.104;-4.162;2023-04-23T00:40:17;2.67;;;2.57;;
8568;SDS011;4322;51.104;-4.162;2023-04-23T00:42:45;3.60;;;3.50;;
8568;SDS011;4322;51.104;-4.162;2023-04-23T00:45:14;2.90;;;2.80;;
8568;SDS011;4322;51.104;-4.162;2023-04-23T00:47:43;3.00;;;2.90;;
8568;SDS011;4322;51.104;-4.162;2023-04-23T00:50:11;3.20;;;3.10;;
8568;SDS011;4322;51.104;-4.162;2023-04-23T00:52:41;2.70;;;2.60;;
8568;SDS011;4322;51.104;-4.162;2023-04-23T00:55:09;3.37;;;3.27;;
8568;SDS011;4322;51.104;-4.162;2023-04-23T00:57:37;3.43;;;3.33;;
8568;SDS011;4322;51.104;-4.162;2023-04-23T01:00:05;2.70;;;2.60;;
8568;SDS011;4322;51.104;-4.162;2023-04-23T01:02:33;3.07;;;2.97;;
8568;SDS011;4322;51.104;-4.162;2023-04-23T01:05:02;3.10;;;3.00;;
8568;SDS011;4322;51.104;-4.162;2023-04-23T01:07:30;3.20;;;3.10;;
8568;SDS011;4322;51.104;-4.162;2023-04-23T01:10:02;2.70;;;2.60;;
8568;SDS011;4322;51.104;-4.162;2023-04-23T01:12:30;3.63;;;3.53;;
8568;SDS011;4322;51.104;-4.162;2023-04-23T01:14:57;3.17;;;3.07;;
8568;SDS011;4322;51.104;-4.162;2023-04-23T01:17:25;3.10;;;3.00;;
8568;SDS011;4322;51.104;-4.162;2023-04-23T01:19:53;3.20;;;3.10;;
8568;SDS011;4322;51.104;-4.162;2023-04-23T01:22:22;3.13;;;3.03;;
8568;SDS011;4322;51.104;-4.162;2023-04-23T01:24:50;3.70;;;3.60;;
8568;SDS011;4322;51.104;-4.162;2023-04-23T01:27:18;3.80;;;3.70;;
8568;SDS011;4322;51.104;-4.162;2023-04-23T01:29:47;3.70;;;3.60;;
8568;SDS011;4322;51.104;-4.162;2023-04-23T01:32:15;3.17;;;3.07;;
8568;SDS011;4322;51.104;-4.162;2023-04-23T01:34:43;3.33;;;3.23;;
8568;SDS011;4322;51.104;-4.162;2023-04-23T01:37:12;3.10;;;3.00;;
8568;SDS011;4322;51.104;-4.162;2023-04-23T01:39:42;3.90;;;3.80;;
8568;SDS011;4322;51.104;-4.162;2023-04-23T01:42:10;4.00;;;3.83;;
8568;SDS011;4322;51.104;-4.162;2023-04-23T01:44:38;2.90;;;2.80;;
8568;SDS011;4322;51.104;-4.162;2023-04-23T01:47:07;3.10;;;3.00;;
8568;SDS011;4322;51.104;-4.162;2023-04-23T01:49:34;4.03;;;3.87;;
8568;SDS011;4322;51.104;-4.162;2023-04-23T01:52:02;3.57;;;3.47;;
8568;SDS011;4322;51.104;-4.162;2023-04-23T01:54:30;3.60;;;3.50;;
8568;SDS011;4322;51.104;-4.162;2023-04-23T01:56:59;3.00;;;2.90;;
8568;SDS011;4322;51.104;-4.162;2023-04-23T01:59:28;2.90;;;2.80;;
8568;SDS011;4322;51.104;-4.162;2023-04-23T02:01:56;2.73;;;2.63;;
8568;SDS011;4322;51.104;-4.162;2023-04-23T02:04:24;3.37;;;3.27;;
8568;SDS011;4322;51.104;-4.162;2023-04-23T02:06:52;3.03;;;2.93;;
8568;SDS011;4322;51.104;-4.162;2023-04-23T02:09:19;3.10;;;3.00;;
8568;SDS011;4322;51.104;-4.162;2023-04-23T02:11:47;2.90;;;2.80;;
8568;SDS011;4322;51.104;-4.162;2023-04-23T02:14:16;2.90;;;2.80;;
8568;SDS011;4322;51.104;-4.162;2023-04-23T02:16:44;3.40;;;3.30;;
8568;SDS011;4322;51.104;-4.162;2023-04-23T02:19:12;3.47;;;3.37;;
8568;SDS011;4322;51.104;-4.162;2023-04-23T02:21:42;3.30;;;3.20;;
8568;SDS011;4322;51.104;-4.162;2023-04-23T02:24:10;2.90;;;2.80;;
8568;SDS011;4322;51.104;-4.162;2023-04-23T02:26:38;2.60;;;2.50;;
8568;SDS011;4322;51.104;-4.162;2023-04-23T02:29:05;3.00;;;2.90;;
8568;SDS011;4322;51.104;-4.162;2023-04-23T02:31:35;2.70;;;2.60;;
8568;SDS011;4322;51.104;-4.162;2023-04-23T02:34:02;2.90;;;2.80;;
8568;SDS011;4322;51.104;-4.162;2023-04-23T02:36:30;2.80;;;2.70;;
8568;SDS011;4322;51.104;-4.162;2023-04-23T02:38:58;3.10;;;3.00;;
8568;SDS011;4322;51.104;-4.162;2023-04-23T02:41:26;2.80;;;2.70;;
8568;SDS011;4322;51.104;-4.162;2023-04-23T02:43:54;3.70;;;3.60;;
8568;SDS011;4322;51.104;-4.162;2023-04-23T02:46:21;3.80;;;3.70;;
8568;SDS011;4322;51.104;-4.162;2023-04-23T02:48:51;3.50;;;3.40;;
8568;SDS011;4322;51.104;-4.162;2023-04-23T02:51:18;2.50;;;2.40;;
8568;SDS011;4322;51.104;-4.162;2023-04-23T02:53:46;3.20;;;3.10;;
8568;SDS011;4322;51.104;-4.162;2023-04-23T02:56:14;3.10;;;3.00;;
8568;SDS011;4322;51.104;-4.162;2023-04-23T02:58:42;3.73;;;3.63;;
8568;SDS011;4322;51.104;-4.162;2023-04-23T03:01:09;2.93;;;2.83;;
8568;SDS011;4322;51.104;-4.162;2023-04-23T03:03:37;2.80;;;2.70;;
8568;SDS011;4322;51.104;-4.162;2023-04-23T03:06:13;2.70;;;2.60;;
8568;SDS011;4322;51.104;-4.162;2023-04-23T03:08:41;2.70;;;2.60;;
8568;SDS011;4322;51.104;-4.162;2023-04-23T03:11:08;3.20;;;3.10;;
8568;SDS011;4322;51.104;-4.162;2023-04-23T03:13:36;2.70;;;2.60;;
8568;SDS011;4322;51.104;-4.162;2023-04-23T03:16:04;2.80;;;2.70;;
8568;SDS011;4322;51.104;-4.162;2023-04-23T03:18:32;3.00;;;2.90;;
8568;SDS011;4322;51.104;-4.162;2023-04-23T03:21:00;3.17;;;3.07;;
8568;SDS011;4322;51.104;-4.162;2023-04-23T03:23:29;3.50;;;3.40;;
8568;SDS011;4322;51.104;-4.162;2023-04-23T03:25:57;3.70;;;3.60;;
8568;SDS011;4322;51.104;-4.162;2023-04-23T03:28:24;3.30;;;3.20;;
8568;SDS011;4322;51.104;-4.162;2023-04-23T03:30:52;2.80;;;2.70;;
8568;SDS011;4322;51.104;-4.162;2023-04-23T03:33:20;3.43;;;3.33;;
8568;SDS011;4322;51.104;-4.162;2023-04-23T03:35:50;3.50;;;3.40;;
8568;SDS011;4322;51.104;-4.162;2023-04-23T03:38:18;3.50;;;3.40;;
8568;SDS011;4322;51.104;-4.162;2023-04-23T03:40:47;3.30;;;3.20;;
8568;SDS011;4322;51.104;-4.162;2023-04-23T03:43:15;2.93;;;2.83;;
8568;SDS011;4322;51.104;-4.162;2023-04-23T03:45:43;2.80;;;2.70;;
8568;SDS011;4322;51.104;-4.162;2023-04-23T03:48:11;3.63;;;3.53;;
8568;SDS011;4322;51.104;-4.162;2023-04-23T03:50:39;3.00;;;2.90;;
8568;SDS011;4322;51.104;-4.162;2023-04-23T03:53:07;2.70;;;2.60;;
8568;SDS011;4322;51.104;-4.162;2023-04-23T03:55:36;2.80;;;2.70;;
8568;SDS011;4322;51.104;-4.162;2023-04-23T03:58:05;3.10;;;3.00;;
8568;SDS011;4322;51.104;-4.162;2023-04-23T04:00:35;3.63;;;3.53;;
8568;SDS011;4322;51.104;-4.162;2023-04-23T04:03:02;3.80;;;3.70;;
8568;SDS011;4322;51.104;-4.162;2023-04-23T04:05:30;3.87;;;3.77;;
8568;SDS011;4322;51.104;-4.162;2023-04-23T04:07:58;3.10;;;3.00;;
8568;SDS011;4322;51.104;-4.162;2023-04-23T04:10:26;3.67;;;3.57;;
8568;SDS011;4322;51.104;-4.162;2023-04-23T04:12:54;3.23;;;3.13;;
8568;SDS011;4322;51.104;-4.162;2023-04-23T04:15:23;4.10;;;3.90;;
8568;SDS011;4322;51.104;-4.162;2023-04-23T04:17:51;3.07;;;2.97;;
8568;SDS011;4322;51.104;-4.162;2023-04-23T04:20:19;3.27;;;3.17;;
8568;SDS011;4322;51.104;-4.162;2023-04-23T04:22:47;3.30;;;3.20;;
8568;SDS011;4322;51.104;-4.162;2023-04-23T04:25:14;3.60;;;3.50;;
8568;SDS011;4322;51.104;-4.162;2023-04-23T04:27:42;3.73;;;3.63;;
8568;SDS011;4322;51.104;-4.162;2023-04-23T04:30:11;3.60;;;3.50;;
8568;SDS011;4322;51.104;-4.162;2023-04-23T04:32:40;3.30;;;3.20;;
8568;SDS011;4322;51.104;-4.162;2023-04-23T04:35:10;2.73;;;2.63;;
8568;SDS011;4322;51.104;-4.162;2023-04-23T04:37:39;3.30;;;3.20;;
8568;SDS011;4322;51.104;-4.162;2023-04-23T04:40:07;3.10;;;3.00;;
8568;SDS011;4322;51.104;-4.162;2023-04-23T04:42:36;4.20;;;4.00;;
8568;SDS011;4322;51.104;-4.162;2023-04-23T04:45:05;4.03;;;3.87;;
8568;SDS011;4322;51.104;-4.162;2023-04-23T04:47:34;3.50;;;3.40;;
8568;SDS011;4322;51.104;-4.162;2023-04-23T04:50:03;3.33;;;3.23;;
8568;SDS011;4322;51.104;-4.162;2023-04-23T04:52:34;2.83;;;2.73;;
8568;SDS011;4322;51.104;-4.162;2023-04-23T04:55:02;2.97;;;2.87;;
8568;SDS011;4322;51.104;-4.162;2023-04-23T04:57:32;2.97;;;2.87;;
8568;SDS011;4322;51.104;-4.162;2023-04-23T05:00:00;3.83;;;3.73;;
8568;SDS011;4322;51.104;-4.162;2023-04-23T05:02:30;2.97;;;2.87;;
8568;SDS011;4322;51.104;-4.162;2023-04-23T05:04:58;3.20;;;3.10;;
8568;SDS011;4322;51.104;-4.162;2023-04-23T05:07:27;3.23;;;3.13;;
8568;SDS011;4322;51.104;-4.162;2023-04-23T05:09:55;3.30;;;3.20;;
8568;SDS011;4322;51.104;-4.162;2023-04-23T05:12:22;4.17;;;3.97;;
8568;SDS011;4322;51.104;-4.162;2023-04-23T05:14:50;3.50;;;3.40;;
8568;SDS011;4322;51.104;-4.162;2023-04-23T05:17:19;3.00;;;2.90;;
8568;SDS011;4322;51.104;-4.162;2023-04-23T05:19:47;3.00;;;2.90;;
8568;SDS011;4322;51.104;-4.162;2023-04-23T05:22:15;2.80;;;2.70;;
8568;SDS011;4322;51.104;-4.162;2023-04-23T05:24:45;3.00;;;2.90;;
8568;SDS011;4322;51.104;-4.162;2023-04-23T05:27:12;2.70;;;2.60;;
8568;SDS011;4322;51.104;-4.162;2023-04-23T05:29:40;3.03;;;2.93;;
8568;SDS011;4322;51.104;-4.162;2023-04-23T05:32:09;3.00;;;2.90;;
8568;SDS011;4322;51.104;-4.162;2023-04-23T05:34:38;2.97;;;2.87;;
8568;SDS011;4322;51.104;-4.162;2023-04-23T05:37:06;2.90;;;2.80;;
8568;SDS011;4322;51.104;-4.162;2023-04-23T05:39:34;2.93;;;2.83;;
8568;SDS011;4322;51.104;-4.162;2023-04-23T05:42:03;2.90;;;2.80;;
8568;SDS011;4322;51.104;-4.162;2023-04-23T05:44:31;2.90;;;2.80;;
8568;SDS011;4322;51.104;-4.162;2023-04-23T05:46:59;2.80;;;2.70;;
8568;SDS011;4322;51.104;-4.162;2023-04-23T05:49:27;2.63;;;2.53;;
8568;SDS011;4322;51.104;-4.162;2023-04-23T05:51:54;2.70;;;2.60;;
8568;SDS011;4322;51.104;-4.162;2023-04-23T05:54:24;2.80;;;2.70;;
8568;SDS011;4322;51.104;-4.162;2023-04-23T05:56:51;3.00;;;2.90;;
8568;SDS011;4322;51.104;-4.162;2023-04-23T05:59:21;2.67;;;2.57;;
8568;SDS011;4322;51.104;-4.162;2023-04-23T06:01:49;2.80;;;2.70;;
8568;SDS011;4322;51.104;-4.162;2023-04-23T06:04:17;2.80;;;2.70;;
8568;SDS011;4322;51.104;-4.162;2023-04-23T06:06:45;2.83;;;2.73;;
8568;SDS011;4322;51.104;-4.162;2023-04-23T06:09:13;3.00;;;2.90;;
8568;SDS011;4322;51.104;-4.162;2023-04-23T06:11:41;2.90;;;2.80;;
8568;SDS011;4322;51.104;-4.162;2023-04-23T06:14:09;2.90;;;2.80;;
8568;SDS011;4322;51.104;-4.162;2023-04-23T06:16:38;2.80;;;2.70;;
8568;SDS011;4322;51.104;-4.162;2023-04-23T06:19:06;3.10;;;3.00;;
8568;SDS011;4322;51.104;-4.162;2023-04-23T06:21:34;2.63;;;2.53;;
8568;SDS011;4322;51.104;-4.162;2023-04-23T06:24:01;2.73;;;2.63;;
8568;SDS011;4322;51.104;-4.162;2023-04-23T06:26:30;2.80;;;2.70;;
8568;SDS011;4322;51.104;-4.162;2023-04-23T06:28:58;3.00;;;2.90;;
8568;SDS011;4322;51.104;-4.162;2023-04-23T06:31:26;3.30;;;3.20;;
8568;SDS011;4322;51.104;-4.162;2023-04-23T06:33:55;2.80;;;2.70;;
8568;SDS011;4322;51.104;-4.162;2023-04-23T06:36:23;2.60;;;2.50;;
8568;SDS011;4322;51.104;-4.162;2023-04-23T06:38:51;2.90;;;2.80;;
8568;SDS011;4322;51.104;-4.162;2023-04-23T06:41:19;2.70;;;2.60;;
8568;SDS011;4322;51.104;-4.162;2023-04-23T06:43:47;2.70;;;2.60;;
8568;SDS011;4322;51.104;-4.162;2023-04-23T06:46:15;2.97;;;2.87;;
8568;SDS011;4322;51.104;-4.162;2023-04-23T06:48:42;2.90;;;2.80;;
8568;SDS011;4322;51.104;-4.162;2023-04-23T06:51:12;3.00;;;2.90;;
8568;SDS011;4322;51.104;-4.162;2023-04-23T06:53:39;2.40;;;2.30;;
8568;SDS011;4322;51.104;-4.162;2023-04-23T06:56:07;2.70;;;2.60;;
8568;SDS011;4322;51.104;-4.162;2023-04-23T06:58:35;2.90;;;2.80;;
8568;SDS011;4322;51.104;-4.162;2023-04-23T07:01:04;2.90;;;2.80;;
8568;SDS011;4322;51.104;-4.162;2023-04-23T07:03:33;3.00;;;2.90;;
8568;SDS011;4322;51.104;-4.162;2023-04-23T07:06:02;2.90;;;2.80;;
8568;SDS011;4322;51.104;-4.162;2023-04-23T07:08:31;3.13;;;3.03;;
8568;SDS011;4322;51.104;-4.162;2023-04-23T07:10:59;3.00;;;2.90;;
8568;SDS011;4322;51.104;-4.162;2023-04-23T07:13:26;2.83;;;2.73;;
8568;SDS011;4322;51.104;-4.162;2023-04-23T07:15:54;2.60;;;2.50;;
8568;SDS011;4322;51.104;-4.162;2023-04-23T07:18:22;2.60;;;2.50;;
8568;SDS011;4322;51.104;-4.162;2023-04-23T07:20:50;3.03;;;2.93;;
8568;SDS011;4322;51.104;-4.162;2023-04-23T07:23:18;2.80;;;2.70;;
8568;SDS011;4322;51.104;-4.162;2023-04-23T07:25:48;2.40;;;2.30;;
8568;SDS011;4322;51.104;-4.162;2023-04-23T07:28:15;2.40;;;2.30;;
8568;SDS011;4322;51.104;-4.162;2023-04-23T07:30:43;2.43;;;2.33;;
8568;SDS011;4322;51.104;-4.162;2023-04-23T07:33:11;2.87;;;2.77;;
8568;SDS011;4322;51.104;-4.162;2023-04-23T07:35:39;2.70;;;2.60;;
8568;SDS011;4322;51.104;-4.162;2023-04-23T07:38:07;2.80;;;2.70;;
8568;SDS011;4322;51.104;-4.162;2023-04-23T07:40:35;2.90;;;2.80;;
8568;SDS011;4322;51.104;-4.162;2023-04-23T07:43:04;2.73;;;2.63;;
8568;SDS011;4322;51.104;-4.162;2023-04-23T07:45:32;2.80;;;2.70;;
8568;SDS011;4322;51.104;-4.162;2023-04-23T07:48:00;2.80;;;2.70;;
8568;SDS011;4322;51.104;-4.162;2023-04-23T07:50:28;2.60;;;2.50;;
8568;SDS011;4322;51.104;-4.162;2023-04-23T07:52:56;2.80;;;2.70;;
8568;SDS011;4322;51.104;-4.162;2023-04-23T07:55:23;3.03;;;2.93;;
8568;SDS011;4322;51.104;-4.162;2023-04-23T07:57:51;2.60;;;2.50;;
8568;SDS011;4322;51.104;-4.162;2023-04-23T08:00:20;2.60;;;2.50;;
8568;SDS011;4322;51.104;-4.162;2023-04-23T08:02:48;2.50;;;2.40;;
8568;SDS011;4322;51.104;-4.162;2023-04-23T08:05:17;2.53;;;2.43;;
8568;SDS011;4322;51.104;-4.162;2023-04-23T08:07:44;2.33;;;2.23;;
8568;SDS011;4322;51.104;-4.162;2023-04-23T08:10:12;2.80;;;2.70;;
8568;SDS011;4322;51.104;-4.162;2023-04-23T08:12:40;2.50;;;2.40;;
8568;SDS011;4322;51.104;-4.162;2023-04-23T08:15:08;2.40;;;2.30;;
8568;SDS011;4322;51.104;-4.162;2023-04-23T08:17:37;2.70;;;2.60;;
8568;SDS011;4322;51.104;-4.162;2023-04-23T08:20:06;2.40;;;2.30;;
8568;SDS011;4322;51.104;-4.162;2023-04-23T08:22:34;2.40;;;2.30;;
8568;SDS011;4322;51.104;-4.162;2023-04-23T08:25:02;2.10;;;2.10;;
8568;SDS011;4322;51.104;-4.162;2023-04-23T08:27:30;2.50;;;2.40;;
8568;SDS011;4322;51.104;-4.162;2023-04-23T08:29:57;2.07;;;2.07;;
8568;SDS011;4322;51.104;-4.162;2023-04-23T08:32:25;2.27;;;2.20;;
8568;SDS011;4322;51.104;-4.162;2023-04-23T08:34:54;2.13;;;2.10;;
8568;SDS011;4322;51.104;-4.162;2023-04-23T08:37:22;2.40;;;2.30;;
8568;SDS011;4322;51.104;-4.162;2023-04-23T08:40:06;2.10;;;2.10;;
8568;SDS011;4322;51.104;-4.162;2023-04-23T08:42:36;2.20;;;2.10;;
8568;SDS011;4322;51.104;-4.162;2023-04-23T08:45:04;1.90;;;1.90;;
8568;SDS011;4322;51.104;-4.162;2023-04-23T08:47:32;1.93;;;1.93;;
8568;SDS011;4322;51.104;-4.162;2023-04-23T08:50:02;2.30;;;2.20;;
8568;SDS011;4322;51.104;-4.162;2023-04-23T08:52:32;2.37;;;2.27;;
8568;SDS011;4322;51.104;-4.162;2023-04-23T08:55:00;2.53;;;2.43;;
8568;SDS011;4322;51.104;-4.162;2023-04-23T08:57:28;2.43;;;2.33;;
8568;SDS011;4322;51.104;-4.162;2023-04-23T08:59:57;2.77;;;2.67;;
8568;SDS011;4322;51.104;-4.162;2023-04-23T09:02:25;2.70;;;2.60;;
8568;SDS011;4322;51.104;-4.162;2023-04-23T09:04:54;2.80;;;2.70;;
8568;SDS011;4322;51.104;-4.162;2023-04-23T09:07:23;2.40;;;2.30;;
8568;SDS011;4322;51.104;-4.162;2023-04-23T09:09:53;2.60;;;2.50;;
8568;SDS011;4322;51.104;-4.162;2023-04-23T09:12:20;2.53;;;2.43;;
8568;SDS011;4322;51.104;-4.162;2023-04-23T09:14:48;2.97;;;2.87;;
8568;SDS011;4322;51.104;-4.162;2023-04-23T09:17:16;3.00;;;2.90;;
8568;SDS011;4322;51.104;-4.162;2023-04-23T09:19:44;2.60;;;2.50;;
8568;SDS011;4322;51.104;-4.162;2023-04-23T09:22:12;2.90;;;2.80;;
8568;SDS011;4322;51.104;-4.162;2023-04-23T09:24:42;3.00;;;2.90;;
8568;SDS011;4322;51.104;-4.162;2023-04-23T09:27:09;2.90;;;2.80;;
8568;SDS011;4322;51.104;-4.162;2023-04-23T09:29:37;2.60;;;2.50;;
8568;SDS011;4322;51.104;-4.162;2023-04-23T09:32:06;3.00;;;2.90;;
8568;SDS011;4322;51.104;-4.162;2023-04-23T09:34:34;2.90;;;2.80;;
8568;SDS011;4322;51.104;-4.162;2023-04-23T09:37:03;3.10;;;3.00;;
8568;SDS011;4322;51.104;-4.162;2023-04-23T09:39:33;3.60;;;3.50;;
8568;SDS011;4322;51.104;-4.162;2023-04-23T09:42:03;3.20;;;3.10;;
8568;SDS011;4322;51.104;-4.162;2023-04-23T09:44:31;3.60;;;3.50;;
8568;SDS011;4322;51.104;-4.162;2023-04-23T09:47:05;3.30;;;3.20;;
8568;SDS011;4322;51.104;-4.162;2023-04-23T09:49:43;3.70;;;3.60;;
8568;SDS011;4322;51.104;-4.162;2023-04-23T09:52:11;3.40;;;3.30;;
8568;SDS011;4322;51.104;-4.162;2023-04-23T09:54:39;3.40;;;3.30;;
8568;SDS011;4322;51.104;-4.162;2023-04-23T09:57:09;3.50;;;3.40;;
8568;SDS011;4322;51.104;-4.162;2023-04-23T09:59:37;3.73;;;3.63;;
8568;SDS011;4322;51.104;-4.162;2023-04-23T10:02:11;3.60;;;3.50;;
8568;SDS011;4322;51.104;-4.162;2023-04-23T10:04:39;3.67;;;3.57;;
8568;SDS011;4322;51.104;-4.162;2023-04-23T10:07:07;3.73;;;3.63;;
8568;SDS011;4322;51.104;-4.162;2023-04-23T10:09:45;3.90;;;3.80;;
8568;SDS011;4322;51.104;-4.162;2023-04-23T10:12:14;3.53;;;3.43;;
8568;SDS011;4322;51.104;-4.162;2023-04-23T10:15:03;4.17;;;3.97;;
8568;SDS011;4322;51.104;-4.162;2023-04-23T10:17:32;3.90;;;3.80;;
8568;SDS011;4322;51.104;-4.162;2023-04-23T10:20:01;4.10;;;3.90;;
8568;SDS011;4322;51.104;-4.162;2023-04-23T10:22:30;4.37;;;4.17;;
8568;SDS011;4322;51.104;-4.162;2023-04-23T10:24:59;3.80;;;3.70;;
8568;SDS011;4322;51.104;-4.162;2023-04-23T10:27:30;4.20;;;4.00;;
8568;SDS011;4322;51.104;-4.162;2023-04-23T10:30:14;3.87;;;3.77;;
8568;SDS011;4322;51.104;-4.162;2023-04-23T10:32:42;3.70;;;3.60;;
8568;SDS011;4322;51.104;-4.162;2023-04-23T10:35:10;3.93;;;3.80;;
8568;SDS011;4322;51.104;-4.162;2023-04-23T10:37:38;4.07;;;3.90;;
8568;SDS011;4322;51.104;-4.162;2023-04-23T10:40:07;3.77;;;3.67;;
8568;SDS011;4322;51.104;-4.162;2023-04-23T10:42:39;4.27;;;4.07;;
8568;SDS011;4322;51.104;-4.162;2023-04-23T10:45:10;3.97;;;3.83;;
8568;SDS011;4322;51.104;-4.162;2023-04-23T10:47:49;4.10;;;3.90;;
8568;SDS011;4322;51.104;-4.162;2023-04-23T10:50:20;5.57;;;5.37;;
8568;SDS011;4322;51.104;-4.162;2023-04-23T10:52:49;6.77;;;6.47;;
8568;SDS011;4322;51.104;-4.162;2023-04-23T10:55:19;13.10;;;12.50;;
8568;SDS011;4322;51.104;-4.162;2023-04-23T10:57:55;20.43;;;19.43;;
8568;SDS011;4322;51.104;-4.162;2023-04-23T11:00:27;18.67;;;17.77;;
8568;SDS011;4322;51.104;-4.162;2023-04-23T11:02:54;17.50;;;16.60;;
8568;SDS011;4322;51.104;-4.162;2023-04-23T11:05:23;17.43;;;16.53;;
8568;SDS011;4322;51.104;-4.162;2023-04-23T11:08:02;18.47;;;17.57;;
8568;SDS011;4322;51.104;-4.162;2023-04-23T11:10:52;18.60;;;17.70;;
8568;SDS011;4322;51.104;-4.162;2023-04-23T11:13:23;20.37;;;19.37;;
8568;SDS011;4322;51.104;-4.162;2023-04-23T11:21:20;21.50;;;20.40;;
8568;SDS011;4322;51.104;-4.162;2023-04-23T11:23:48;21.33;;;20.23;;
8568;SDS011;4322;51.104;-4.162;2023-04-23T11:26:16;22.10;;;21.00;;
8568;SDS011;4322;51.104;-4.162;2023-04-23T11:28:45;20.13;;;19.13;;
8568;SDS011;4322;51.104;-4.162;2023-04-23T11:31:14;21.37;;;20.27;;
8568;SDS011;4322;51.104;-4.162;2023-04-23T11:33:41;22.00;;;20.90;;
8568;SDS011;4322;51.104;-4.162;2023-04-23T11:36:09;21.80;;;20.70;;
8568;SDS011;4322;51.104;-4.162;2023-04-23T11:38:41;21.20;;;20.10;;
8568;SDS011;4322;51.104;-4.162;2023-04-23T11:41:08;21.43;;;20.33;;
8568;SDS011;4322;51.104;-4.162;2023-04-23T11:43:37;19.67;;;18.67;;
8568;SDS011;4322;51.104;-4.162;2023-04-23T11:46:06;19.37;;;18.37;;
8568;SDS011;4322;51.104;-4.162;2023-04-23T11:48:34;20.70;;;19.70;;
8568;SDS011;4322;51.104;-4.162;2023-04-23T11:51:02;20.03;;;19.03;;
8568;SDS011;4322;51.104;-4.162;2023-04-23T11:53:30;18.83;;;17.90;;
8568;SDS011;4322;51.104;-4.162;2023-04-23T11:55:58;18.10;;;17.20;;
8568;SDS011;4322;51.104;-4.162;2023-04-23T11:58:26;17.70;;;16.80;;
8568;SDS011;4322;51.104;-4.162;2023-04-23T12:00:56;16.73;;;15.93;;
8568;SDS011;4322;51.104;-4.162;2023-04-23T12:03:25;15.73;;;14.93;;
8568;SDS011;4322;51.104;-4.162;2023-04-23T12:05:54;14.47;;;13.77;;
8568;SDS011;4322;51.104;-4.162;2023-04-23T12:08:22;14.93;;;14.23;;
8568;SDS011;4322;51.104;-4.162;2023-04-23T12:10:50;16.40;;;15.60;;
8568;SDS011;4322;51.104;-4.162;2023-04-23T12:13:20;15.77;;;14.97;;
8568;SDS011;4322;51.104;-4.162;2023-04-23T12:15:49;14.77;;;14.07;;
8568;SDS011;4322;51.104;-4.162;2023-04-23T12:18:17;14.97;;;14.27;;
8568;SDS011;4322;51.104;-4.162;2023-04-23T12:20:46;14.37;;;13.67;;
8568;SDS011;4322;51.104;-4.162;2023-04-23T12:23:14;13.60;;;12.90;;
8568;SDS011;4322;51.104;-4.162;2023-04-23T12:25:42;13.83;;;13.13;;
8568;SDS011;4322;51.104;-4.162;2023-04-23T12:28:10;13.60;;;12.90;;
8568;SDS011;4322;51.104;-4.162;2023-04-23T12:30:42;14.03;;;13.33;;
8568;SDS011;4322;51.104;-4.162;2023-04-23T12:33:10;11.93;;;11.33;;
8568;SDS011;4322;51.104;-4.162;2023-04-23T12:35:38;13.47;;;12.80;;
8568;SDS011;4322;51.104;-4.162;2023-04-23T12:38:11;14.93;;;14.23;;
8568;SDS011;4322;51.104;-4.162;2023-04-23T12:40:47;16.00;;;15.20;;
8568;SDS011;4322;51.104;-4.162;2023-04-23T12:43:15;15.33;;;14.53;;
8568;SDS011;4322;51.104;-4.162;2023-04-23T12:45:43;16.70;;;15.90;;
8568;SDS011;4322;51.104;-4.162;2023-04-23T12:48:11;17.83;;;16.93;;
8568;SDS011;4322;51.104;-4.162;2023-04-23T12:50:39;16.37;;;15.57;;
8568;SDS011;4322;51.104;-4.162;2023-04-23T12:53:09;24.00;;;22.80;;
8568;SDS011;4322;51.104;-4.162;2023-04-23T12:55:36;21.10;;;20.00;;
8568;SDS011;4322;51.104;-4.162;2023-04-23T12:58:06;18.13;;;17.23;;
8568;SDS011;4322;51.104;-4.162;2023-04-23T13:00:34;14.60;;;13.90;;
8568;SDS011;4322;51.104;-4.162;2023-04-23T13:03:02;14.10;;;13.40;;
8568;SDS011;4322;51.104;-4.162;2023-04-23T13:05:29;13.87;;;13.17;;
8568;SDS011;4322;51.104;-4.162;2023-04-23T13:07:57;15.83;;;15.03;;
8568;SDS011;4322;51.104;-4.162;2023-04-23T13:10:26;13.20;;;12.60;;
8568;SDS011;4322;51.104;-4.162;2023-04-23T13:12:56;13.97;;;13.27;;
8568;SDS011;4322;51.104;-4.162;2023-04-23T13:15:24;15.80;;;15.00;;
8568;SDS011;4322;51.104;-4.162;2023-04-23T13:17:52;15.50;;;14.70;;
8568;SDS011;4322;51.104;-4.162;2023-04-23T13:20:20;15.77;;;14.97;;
8568;SDS011;4322;51.104;-4.162;2023-04-23T13:22:48;14.50;;;13.80;;
8568;SDS011;4322;51.104;-4.162;2023-04-23T13:25:15;16.03;;;15.23;;
8568;SDS011;4322;51.104;-4.162;2023-04-23T13:27:45;15.30;;;14.50;;
8568;SDS011;4322;51.104;-4.162;2023-04-23T13:30:12;13.50;;;12.80;;
8568;SDS011;4322;51.104;-4.162;2023-04-23T13:32:40;11.87;;;11.27;;
8568;SDS011;4322;51.104;-4.162;2023-04-23T13:35:08;12.90;;;12.30;;
8568;SDS011;4322;51.104;-4.162;2023-04-23T13:37:37;14.97;;;14.27;;
8568;SDS011;4322;51.104;-4.162;2023-04-23T13:40:06;14.97;;;14.27;;
8568;SDS011;4322;51.104;-4.162;2023-04-23T13:42:34;11.77;;;11.17;;
8568;SDS011;4322;51.104;-4.162;2023-04-23T13:45:04;8.60;;;8.20;;
8568;SDS011;4322;51.104;-4.162;2023-04-23T13:47:32;3.20;;;3.10;;
8568;SDS011;4322;51.104;-4.162;2023-04-23T13:50:00;2.77;;;2.67;;
8568;SDS011;4322;51.104;-4.162;2023-04-23T13:52:30;3.20;;;3.10;;
8568;SDS011;4322;51.104;-4.162;2023-04-23T13:54:58;2.53;;;2.43;;
8568;SDS011;4322;51.104;-4.162;2023-04-23T13:57:29;2.30;;;2.20;;
8568;SDS011;4322;51.104;-4.162;2023-04-23T13:59:57;2.20;;;2.10;;
8568;SDS011;4322;51.104;-4.162;2023-04-23T14:02:27;2.33;;;2.23;;
8568;SDS011;4322;51.104;-4.162;2023-04-23T14:04:55;2.60;;;2.50;;
8568;SDS011;4322;51.104;-4.162;2023-04-23T14:07:23;2.60;;;2.50;;
8568;SDS011;4322;51.104;-4.162;2023-04-23T14:09:51;2.10;;;2.07;;
8568;SDS011;4322;51.104;-4.162;2023-04-23T14:12:19;1.90;;;1.90;;
8568;SDS011;4322;51.104;-4.162;2023-04-23T14:14:47;1.90;;;1.90;;
8568;SDS011;4322;51.104;-4.162;2023-04-23T14:17:14;1.70;;;1.70;;
8568;SDS011;4322;51.104;-4.162;2023-04-23T14:19:44;1.50;;;1.50;;
8568;SDS011;4322;51.104;-4.162;2023-04-23T14:22:11;1.90;;;1.90;;
8568;SDS011;4322;51.104;-4.162;2023-04-23T14:24:44;1.67;;;1.67;;
8568;SDS011;4322;51.104;-4.162;2023-04-23T14:27:12;1.80;;;1.80;;
8568;SDS011;4322;51.104;-4.162;2023-04-23T14:29:40;1.70;;;1.70;;
8568;SDS011;4322;51.104;-4.162;2023-04-23T14:32:11;1.60;;;1.60;;
8568;SDS011;4322;51.104;-4.162;2023-04-23T14:34:39;1.40;;;1.40;;
8568;SDS011;4322;51.104;-4.162;2023-04-23T14:37:08;1.40;;;1.40;;
8568;SDS011;4322;51.104;-4.162;2023-04-23T14:39:36;1.40;;;1.40;;
8568;SDS011;4322;51.104;-4.162;2023-04-23T14:42:04;1.50;;;1.50;;
8568;SDS011;4322;51.104;-4.162;2023-04-23T14:44:32;1.60;;;1.60;;
8568;SDS011;4322;51.104;-4.162;2023-04-23T14:47:00;1.40;;;1.40;;
8568;SDS011;4322;51.104;-4.162;2023-04-23T14:49:27;1.30;;;1.30;;
8568;SDS011;4322;51.104;-4.162;2023-04-23T14:51:55;1.27;;;1.27;;
8568;SDS011;4322;51.104;-4.162;2023-04-23T14:54:24;1.40;;;1.40;;
8568;SDS011;4322;51.104;-4.162;2023-04-23T14:56:52;1.27;;;1.27;;
8568;SDS011;4322;51.104;-4.162;2023-04-23T14:59:20;1.27;;;1.27;;
8568;SDS011;4322;51.104;-4.162;2023-04-23T15:01:48;1.10;;;1.10;;
8568;SDS011;4322;51.104;-4.162;2023-04-23T15:04:16;1.30;;;1.30;;
8568;SDS011;4322;51.104;-4.162;2023-04-23T15:06:44;1.20;;;1.20;;
8568;SDS011;4322;51.104;-4.162;2023-04-23T15:09:11;1.20;;;1.20;;